createdAt,value
2022-08-14T00:02:24.492Z,18.60
2022-08-14T00:04:54.834Z,18.60
2022-08-14T00:07:22.665Z,18.60
2022-08-14T00:09:56.354Z,18.60
2022-08-14T00:12:42.851Z,18.60
2022-08-14T00:15:43.393Z,18.60
2022-08-14T00:18:30.756Z,18.60
2022-08-14T00:21:03.141Z,18.60
2022-08-14T00:23:31.111Z,18.60
2022-08-14T00:26:06.773Z,18.60
2022-08-14T00:28:37.122Z,18.60
2022-08-14T00:31:06.718Z,18.50
2022-08-14T00:33:50.776Z,18.60
2022-08-14T00:36:35.224Z,18.60
2022-08-14T00:39:18.056Z,18.60
2022-08-14T00:41:47.497Z,18.60
2022-08-14T00:44:21.528Z,18.60
2022-08-14T00:47:03.706Z,18.60
2022-08-14T00:49:38.086Z,18.50
2022-08-14T00:52:14.112Z,18.50
2022-08-14T00:54:46.148Z,18.50
2022-08-14T00:57:13.713Z,18.40
2022-08-14T00:59:41.495Z,18.40
2022-08-14T01:02:09.693Z,18.40
2022-08-14T01:04:54.478Z,18.40
2022-08-14T01:07:24.645Z,18.40
2022-08-14T01:09:58.946Z,18.40
2022-08-14T01:12:29.650Z,18.60
2022-08-14T01:15:02.815Z,18.60
2022-08-14T01:17:51.910Z,18.60
2022-08-14T01:20:56.100Z,18.60
2022-08-14T01:23:24.544Z,18.70
2022-08-14T01:26:11.667Z,18.70
2022-08-14T01:28:56.552Z,18.70
2022-08-14T01:31:27.439Z,18.80
2022-08-14T01:35:18.699Z,18.80
2022-08-14T01:36:53.847Z,18.80
2022-08-14T01:39:21.461Z,18.80
2022-08-14T01:41:58.326Z,18.80
2022-08-14T01:44:32.551Z,18.80
2022-08-14T01:47:11.641Z,18.80
2022-08-14T01:49:46.088Z,18.80
2022-08-14T01:52:34.278Z,18.90
2022-08-14T01:55:16.125Z,18.90
2022-08-14T01:57:49.410Z,18.90
2022-08-14T02:00:36.107Z,18.90
2022-08-14T02:03:06.834Z,18.90
2022-08-14T02:05:38.344Z,18.90
2022-08-14T02:08:09.791Z,18.90
2022-08-14T02:10:46.960Z,18.90
2022-08-14T02:13:16.926Z,19.00
2022-08-14T02:15:45.798Z,19.00
2022-08-14T02:18:16.525Z,19.00
2022-08-14T02:20:47.787Z,19.00
2022-08-14T02:23:28.940Z,19.00
2022-08-14T02:26:24.035Z,19.00
2022-08-14T02:28:57.893Z,19.00
2022-08-14T02:31:42.238Z,19.00
2022-08-14T02:34:22.564Z,18.90
2022-08-14T02:37:05.268Z,18.90
2022-08-14T02:39:45.764Z,18.80
2022-08-14T02:42:17.765Z,18.80
2022-08-14T02:44:51.240Z,18.80
2022-08-14T02:47:21.009Z,18.80
2022-08-14T02:49:54.583Z,18.80
2022-08-14T02:52:55.599Z,18.80
2022-08-14T02:55:15.599Z,18.80
2022-08-14T02:57:58.194Z,18.70
2022-08-14T03:00:33.196Z,18.80
2022-08-14T03:03:02.794Z,18.70
2022-08-14T03:05:37.105Z,18.80
2022-08-14T03:08:15.331Z,18.80
2022-08-14T03:10:48.662Z,18.80
2022-08-14T03:13:20.909Z,18.80
2022-08-14T03:15:56.099Z,18.80
2022-08-14T03:18:30.767Z,18.80
2022-08-14T03:21:00.359Z,18.90
2022-08-14T03:23:28.055Z,18.90
2022-08-14T03:25:56.278Z,18.90
2022-08-14T03:28:33.038Z,18.90
2022-08-14T03:31:01.906Z,18.90
2022-08-14T03:33:37.445Z,18.90
2022-08-14T03:37:39.107Z,18.90
2022-08-14T03:39:14.042Z,18.90
2022-08-14T03:41:48.568Z,19.00
2022-08-14T03:45:25.297Z,19.00
2022-08-14T03:47:03.959Z,19.00
2022-08-14T03:49:33.930Z,19.00
2022-08-14T03:52:04.930Z,19.00
2022-08-14T03:54:52.617Z,19.10
2022-08-14T03:57:22.703Z,19.10
2022-08-14T03:59:50.508Z,19.10
2022-08-14T04:02:32.641Z,19.10
2022-08-14T04:05:12.814Z,19.20
2022-08-14T04:08:00.083Z,19.20
2022-08-14T04:10:32.108Z,19.20
2022-08-14T04:13:03.998Z,19.30
2022-08-14T04:15:55.773Z,19.30
2022-08-14T04:18:21.072Z,19.30
2022-08-14T04:20:54.378Z,19.30
2022-08-14T04:23:29.465Z,19.30
2022-08-14T04:26:02.672Z,19.30
2022-08-14T04:29:08.386Z,19.40
2022-08-14T04:31:24.760Z,19.40
2022-08-14T04:34:04.186Z,19.40
2022-08-14T04:36:53.313Z,19.50
2022-08-14T04:39:46.556Z,19.40
2022-08-14T04:42:33.089Z,19.40
2022-08-14T04:45:01.290Z,19.50
2022-08-14T04:47:47.320Z,19.50
2022-08-14T04:50:31.330Z,19.50
2022-08-14T04:53:13.031Z,19.60
2022-08-14T04:55:53.648Z,19.70
2022-08-14T04:58:33.069Z,19.70
2022-08-14T05:01:04.242Z,19.80
2022-08-14T05:03:33.563Z,19.80
2022-08-14T05:06:04.624Z,19.80
2022-08-14T05:08:57.291Z,19.80
2022-08-14T05:11:28.217Z,19.90
2022-08-14T05:14:33.782Z,19.90
2022-08-14T05:16:46.582Z,20.00
2022-08-14T05:19:17.784Z,20.10
2022-08-14T05:22:16.660Z,20.20
2022-08-14T05:24:51.177Z,20.20
2022-08-14T05:27:22.880Z,20.20
2022-08-14T05:29:55.147Z,20.30
2022-08-14T05:32:26.873Z,20.30
2022-08-14T05:34:59.885Z,20.20
2022-08-14T05:37:29.635Z,20.20
2022-08-14T05:39:59.037Z,20.30
2022-08-14T05:42:31.761Z,20.40
2022-08-14T05:45:01.996Z,20.40
2022-08-14T05:47:38.919Z,20.40
2022-08-14T05:50:19.309Z,20.40
2022-08-14T05:52:51.470Z,20.50
2022-08-14T05:55:22.674Z,20.50
2022-08-14T05:58:02.780Z,20.60
2022-08-14T06:00:42.279Z,20.70
2022-08-14T06:03:12.498Z,20.80
2022-08-14T06:05:40.118Z,20.90
2022-08-14T06:08:41.161Z,21.00
2022-08-14T06:11:10.329Z,21.10
2022-08-14T06:13:45.565Z,21.00
2022-08-14T06:16:17.532Z,21.00
2022-08-14T06:18:52.344Z,21.00
2022-08-14T06:21:22.802Z,21.20
2022-08-14T06:23:50.761Z,21.40
2022-08-14T06:26:20.443Z,21.50
2022-08-14T06:28:51.965Z,21.70
2022-08-14T06:31:21.220Z,21.80
2022-08-14T06:35:10.769Z,22.00
2022-08-14T06:36:39.369Z,22.10
2022-08-14T06:39:10.461Z,22.20
2022-08-14T06:41:58.623Z,22.20
2022-08-14T06:44:30.880Z,22.30
2022-08-14T06:47:03.008Z,22.30
2022-08-14T06:49:40.465Z,22.30
2022-08-14T06:52:16.131Z,22.30
2022-08-14T06:54:44.896Z,22.40
2022-08-14T06:57:13.199Z,22.40
2022-08-14T06:59:41.483Z,22.50
2022-08-14T07:02:28.922Z,22.50
2022-08-14T07:05:21.117Z,22.50
2022-08-14T07:07:51.105Z,22.60
2022-08-14T07:10:25.328Z,22.70
2022-08-14T07:13:01.158Z,22.80
2022-08-14T07:15:34.028Z,22.90
2022-08-14T07:18:09.241Z,22.90
2022-08-14T07:20:39.347Z,23.00
2022-08-14T07:23:11.309Z,23.10
2022-08-14T07:25:51.742Z,23.20
2022-08-14T07:28:24.629Z,23.30
2022-08-14T07:31:04.942Z,23.40
2022-08-14T07:33:42.073Z,23.50
2022-08-14T07:36:26.314Z,23.60
2022-08-14T07:38:56.093Z,23.40
2022-08-14T07:41:23.756Z,23.40
2022-08-14T07:43:55.466Z,23.30
2022-08-14T07:46:41.239Z,23.30
2022-08-14T07:49:09.771Z,23.30
2022-08-14T07:51:43.150Z,23.30
2022-08-14T07:54:11.711Z,23.40
2022-08-14T07:56:47.762Z,23.70
2022-08-14T07:59:18.672Z,23.90
2022-08-14T08:01:48.029Z,24.00
2022-08-14T08:04:25.251Z,24.30
2022-08-14T08:06:55.128Z,24.30
2022-08-14T08:09:31.876Z,24.30
2022-08-14T08:12:04.984Z,24.40
2022-08-14T08:14:56.801Z,24.30
2022-08-14T08:17:24.170Z,24.40
2022-08-14T08:19:52.070Z,24.40
2022-08-14T08:22:21.372Z,24.50
2022-08-14T08:24:50.313Z,24.60
2022-08-14T08:27:22.273Z,24.80
2022-08-14T08:29:51.371Z,25.00
2022-08-14T08:32:19.224Z,25.10
2022-08-14T08:34:48.550Z,25.30
2022-08-14T08:37:17.128Z,25.40
2022-08-14T08:40:02.248Z,25.50
2022-08-14T08:42:44.691Z,25.70
2022-08-14T08:45:17.329Z,25.90
2022-08-14T08:47:46.581Z,26.10
2022-08-14T08:53:06.913Z,26.50
2022-08-14T08:55:42.454Z,26.50
2022-08-14T08:58:20.185Z,26.40
2022-08-14T09:00:55.387Z,26.50
2022-08-14T09:03:27.407Z,26.50
2022-08-14T09:05:58.122Z,26.50
2022-08-14T09:08:31.638Z,26.50
2022-08-14T09:11:19.875Z,26.40
2022-08-14T09:13:53.193Z,26.40
2022-08-14T09:16:23.574Z,26.30
2022-08-14T09:18:53.255Z,26.10
2022-08-14T09:21:24.274Z,26.00
2022-08-14T09:24:28.647Z,25.90
2022-08-14T09:26:49.373Z,25.80
2022-08-14T09:29:20.048Z,25.80
2022-08-14T09:31:58.302Z,26.10
2022-08-14T09:34:57.977Z,26.20
2022-08-14T09:37:40.874Z,26.60
2022-08-14T09:40:29.392Z,26.90
2022-08-14T09:43:26.768Z,26.90
2022-08-14T09:45:58.420Z,26.70
2022-08-14T09:48:31.191Z,26.70
2022-08-14T09:54:18.742Z,27.00
2022-08-14T09:56:43.451Z,27.00
2022-08-14T09:59:15.228Z,27.10
2022-08-14T10:01:46.217Z,27.10
2022-08-14T10:04:36.475Z,27.10
2022-08-14T10:07:08.072Z,27.20
2022-08-14T10:09:59.996Z,27.30
2022-08-14T10:12:54.743Z,27.00
2022-08-14T10:15:25.354Z,27.00
2022-08-14T10:18:13.394Z,27.00
2022-08-14T10:20:55.408Z,26.80
2022-08-14T10:23:26.078Z,26.90
2022-08-14T10:26:04.327Z,26.90
2022-08-14T10:29:18.273Z,27.10
2022-08-14T10:31:43.205Z,27.30
2022-08-14T10:34:19.051Z,27.50
2022-08-14T10:36:49.940Z,27.60
2022-08-14T10:39:26.094Z,27.90
2022-08-14T10:42:16.530Z,28.30
2022-08-14T10:44:52.564Z,28.80
2022-08-14T10:47:40.288Z,28.90
2022-08-14T10:50:12.194Z,28.80
2022-08-14T10:52:43.698Z,28.70
2022-08-14T10:55:19.487Z,28.50
2022-08-14T10:57:59.775Z,28.60
2022-08-14T11:00:30.407Z,28.70
2022-08-14T11:03:09.924Z,28.90
2022-08-14T11:05:44.007Z,29.20
2022-08-14T11:08:15.561Z,29.70
2022-08-14T11:10:48.516Z,30.50
2022-08-14T11:13:23.816Z,31.10
2022-08-14T11:15:52.766Z,31.10
2022-08-14T11:18:32.528Z,32.40
2022-08-14T11:21:07.059Z,33.90
2022-08-14T11:23:40.689Z,35.20
2022-08-14T11:26:13.361Z,36.30
2022-08-14T11:28:49.780Z,37.10
2022-08-14T11:31:23.933Z,37.60
2022-08-14T11:33:58.367Z,37.80
2022-08-14T11:37:02.894Z,37.50
2022-08-14T11:39:34.842Z,37.60
2022-08-14T11:42:55.645Z,37.70
2022-08-14T11:45:00.039Z,36.90
2022-08-14T11:47:35.149Z,36.70
2022-08-14T11:50:33.438Z,36.10
2022-08-14T11:53:04.288Z,36.00
2022-08-14T11:55:38.294Z,35.90
2022-08-14T11:58:12.024Z,37.10
2022-08-14T12:00:54.076Z,38.00
2022-08-14T12:03:37.750Z,38.80
2022-08-14T12:06:28.744Z,38.90
2022-08-14T12:09:00.039Z,39.00
2022-08-14T12:11:44.071Z,38.60
2022-08-14T12:14:30.417Z,38.90
2022-08-14T12:17:12.106Z,39.10
2022-08-14T12:19:51.596Z,39.90
2022-08-14T12:22:42.955Z,40.80
2022-08-14T12:25:20.995Z,41.10
2022-08-14T12:27:59.062Z,40.80
2022-08-14T12:30:43.271Z,40.70
2022-08-14T12:33:33.507Z,40.10
2022-08-14T12:36:08.787Z,39.90
2022-08-14T12:38:43.690Z,40.40
2022-08-14T12:41:20.514Z,40.40
2022-08-14T12:43:59.528Z,39.70
2022-08-14T12:46:41.129Z,38.20
2022-08-14T12:49:16.218Z,36.90
2022-08-14T12:51:56.186Z,35.90
2022-08-14T12:54:28.331Z,35.90
2022-08-14T12:57:18.968Z,37.30
2022-08-14T12:59:50.579Z,38.60
2022-08-14T13:02:26.955Z,39.30
2022-08-14T13:04:58.177Z,39.50
2022-08-14T13:07:32.767Z,39.90
2022-08-14T13:10:34.335Z,40.10
2022-08-14T13:13:13.139Z,40.20
2022-08-14T13:15:48.045Z,40.30
2022-08-14T13:18:26.640Z,40.20
2022-08-14T13:20:59.774Z,40.40
2022-08-14T13:23:36.483Z,40.50
2022-08-14T13:26:06.494Z,40.20
2022-08-14T13:29:00.644Z,40.10
2022-08-14T13:31:30.142Z,40.20
2022-08-14T13:33:58.659Z,40.30
2022-08-14T13:36:51.654Z,40.40
2022-08-14T13:39:22.994Z,39.80
2022-08-14T13:41:55.609Z,39.50
2022-08-14T13:44:27.300Z,38.60
2022-08-14T13:46:55.572Z,36.80
2022-08-14T13:49:23.944Z,35.40
2022-08-14T13:51:59.058Z,34.20
2022-08-14T13:54:31.239Z,33.00
2022-08-14T13:57:01.560Z,32.00
2022-08-14T13:59:38.213Z,31.20
2022-08-14T14:02:08.260Z,30.80
2022-08-14T14:04:41.631Z,30.60
2022-08-14T14:07:14.776Z,30.10
2022-08-14T14:09:51.102Z,29.90
2022-08-14T14:12:37.241Z,29.70
2022-08-14T14:15:09.974Z,29.60
2022-08-14T14:17:39.912Z,29.60
2022-08-14T14:20:34.490Z,29.70
2022-08-14T14:23:03.485Z,30.00
2022-08-14T14:25:48.073Z,30.50
2022-08-14T14:28:23.877Z,30.90
2022-08-14T14:30:57.293Z,30.30
2022-08-14T14:33:47.050Z,30.20
2022-08-14T14:36:20.992Z,29.80
2022-08-14T14:38:57.513Z,29.50
2022-08-14T14:41:27.380Z,29.30
2022-08-14T14:44:13.642Z,29.20
2022-08-14T14:46:50.209Z,29.00
2022-08-14T14:49:22.272Z,28.60
2022-08-14T14:52:00.650Z,28.50
2022-08-14T14:54:31.425Z,28.80
2022-08-14T14:57:04.016Z,30.20
2022-08-14T14:59:37.771Z,31.70
2022-08-14T15:02:07.797Z,32.90
2022-08-14T15:04:38.064Z,33.50
2022-08-14T15:07:06.830Z,33.90
2022-08-14T15:09:35.123Z,33.90
2022-08-14T15:12:16.208Z,34.10
2022-08-14T15:14:56.202Z,34.30
2022-08-14T15:17:28.427Z,34.60
2022-08-14T15:20:17.026Z,34.70
2022-08-14T15:22:51.013Z,34.30
2022-08-14T15:25:19.512Z,34.50
2022-08-14T15:27:50.206Z,34.80
2022-08-14T15:30:23.586Z,34.90
2022-08-14T15:32:53.117Z,34.70
2022-08-14T15:35:22.744Z,34.40
2022-08-14T15:37:55.912Z,34.00
2022-08-14T15:40:24.072Z,33.30
2022-08-14T15:42:51.942Z,32.60
2022-08-14T15:45:21.739Z,31.80
2022-08-14T15:47:51.629Z,31.20
2022-08-14T15:50:19.669Z,30.60
2022-08-14T15:52:47.780Z,30.00
2022-08-14T15:55:16.139Z,29.40
2022-08-14T15:58:01.647Z,29.00
2022-08-14T16:00:52.447Z,28.70
2022-08-14T16:03:27.260Z,28.70
2022-08-14T16:06:17.656Z,28.60
2022-08-14T16:08:50.410Z,28.60
2022-08-14T16:11:27.325Z,28.50
2022-08-14T16:13:57.343Z,28.40
2022-08-14T16:16:49.205Z,28.10
2022-08-14T16:19:19.777Z,27.90
2022-08-14T16:22:01.212Z,27.60
2022-08-14T16:24:33.549Z,27.50
2022-08-14T16:27:03.576Z,27.40
2022-08-14T16:29:36.481Z,27.30
2022-08-14T16:32:32.956Z,27.10
2022-08-14T16:34:57.473Z,26.90
2022-08-14T16:37:30.863Z,26.60
2022-08-14T16:40:02.821Z,26.50
2022-08-14T16:42:38.961Z,26.40
2022-08-14T16:45:25.593Z,26.30
2022-08-14T16:47:53.544Z,26.20
2022-08-14T16:50:40.067Z,26.00
2022-08-14T16:53:09.513Z,26.00
2022-08-14T16:55:53.205Z,25.90
2022-08-14T16:58:29.610Z,25.90
2022-08-14T17:01:24.434Z,25.80
2022-08-14T17:03:56.702Z,25.90
2022-08-14T17:06:53.511Z,26.00
2022-08-14T17:09:31.963Z,26.00
2022-08-14T17:12:07.514Z,25.90
2022-08-14T17:15:10.499Z,25.80
2022-08-14T17:17:58.061Z,25.70
2022-08-14T17:20:54.112Z,25.40
2022-08-14T17:23:15.304Z,25.20
2022-08-14T17:25:51.158Z,25.00
2022-08-14T17:28:51.224Z,25.00
2022-08-14T17:31:08.236Z,24.80
2022-08-14T17:33:40.768Z,24.70
2022-08-14T17:36:24.275Z,24.60
2022-08-14T17:39:08.841Z,24.60
2022-08-14T17:41:43.643Z,24.50
2022-08-14T17:44:21.325Z,24.40
2022-08-14T17:46:55.314Z,24.30
2022-08-14T17:49:27.273Z,24.20
2022-08-14T17:52:12.185Z,24.20
2022-08-14T17:54:52.868Z,24.20
2022-08-14T17:57:28.434Z,24.10
2022-08-14T17:59:57.223Z,24.10
2022-08-14T18:02:31.214Z,24.10
2022-08-14T18:05:02.858Z,24.10
2022-08-14T18:08:00.340Z,24.00
2022-08-14T18:10:52.905Z,24.00
2022-08-14T18:13:10.774Z,23.90
2022-08-14T18:15:41.302Z,23.90
2022-08-14T18:18:11.863Z,23.90
2022-08-14T18:21:42.399Z,23.80
2022-08-14T18:23:28.591Z,23.80
2022-08-14T18:25:57.368Z,23.70
2022-08-14T18:28:48.065Z,23.70
2022-08-14T18:31:23.053Z,23.70
2022-08-14T18:34:11.687Z,23.60
2022-08-14T18:37:03.697Z,23.60
2022-08-14T18:40:02.180Z,23.60
2022-08-14T18:42:34.757Z,23.50
2022-08-14T18:45:12.732Z,23.50
2022-08-14T18:48:14.801Z,23.50
2022-08-14T18:50:32.537Z,23.50
2022-08-14T18:53:10.889Z,23.50
2022-08-14T18:55:53.086Z,23.50
2022-08-14T18:58:45.613Z,23.50
2022-08-14T19:01:26.674Z,23.50
2022-08-14T19:03:57.837Z,23.40
2022-08-14T19:06:41.107Z,23.40
2022-08-14T19:09:28.927Z,23.40
2022-08-14T19:11:56.685Z,23.30
2022-08-14T19:14:45.748Z,23.30
2022-08-14T19:18:10.917Z,23.20
2022-08-14T19:20:55.531Z,23.20
2022-08-14T19:23:42.343Z,23.20
2022-08-14T19:26:35.606Z,23.20
2022-08-14T19:29:24.158Z,23.10
2022-08-14T19:31:56.299Z,23.10
2022-08-14T19:34:48.243Z,23.00
2022-08-14T19:37:52.764Z,22.90
2022-08-14T19:40:39.327Z,22.90
2022-08-14T19:43:09.317Z,22.90
2022-08-14T19:45:40.123Z,22.90
2022-08-14T19:48:15.985Z,22.80
2022-08-14T19:50:46.757Z,22.80
2022-08-14T19:53:17.497Z,22.80
2022-08-14T19:56:02.184Z,22.80
2022-08-14T19:58:53.991Z,22.80
2022-08-14T20:01:37.440Z,22.80
2022-08-14T20:04:45.147Z,22.80
2022-08-14T20:06:57.292Z,22.90
2022-08-14T20:11:12.602Z,22.80
2022-08-14T20:12:34.533Z,22.80
2022-08-14T20:15:08.869Z,22.80
2022-08-14T20:17:40.766Z,22.80
2022-08-14T20:20:30.671Z,22.70
2022-08-14T20:23:11.368Z,22.70
2022-08-14T20:25:55.777Z,22.70
2022-08-14T20:28:35.877Z,22.70
2022-08-14T20:31:15.861Z,22.60
2022-08-14T20:34:19.058Z,22.60
2022-08-14T20:37:11.841Z,22.60
2022-08-14T20:39:54.649Z,22.60
2022-08-14T20:42:43.713Z,22.50
2022-08-14T20:45:24.173Z,22.50
2022-08-14T20:48:01.117Z,22.50
2022-08-14T20:50:30.200Z,22.50
2022-08-14T20:53:00.343Z,22.40
2022-08-14T20:55:32.150Z,22.40
2022-08-14T20:58:09.818Z,22.40
2022-08-14T21:01:18.816Z,22.30
2022-08-14T21:03:57.205Z,22.30
2022-08-14T21:06:27.861Z,22.30
2022-08-14T21:09:02.308Z,22.30
2022-08-14T21:11:30.572Z,22.30
2022-08-14T21:14:20.876Z,22.20
2022-08-14T21:16:58.362Z,22.20
2022-08-14T21:19:29.250Z,22.20
2022-08-14T21:21:58.531Z,22.10
2022-08-14T21:24:39.888Z,22.00
2022-08-14T21:27:22.746Z,22.00
2022-08-14T21:29:55.057Z,21.90
2022-08-14T21:32:46.952Z,21.90
2022-08-14T21:35:19.714Z,21.80
2022-08-14T21:37:53.515Z,21.70
2022-08-14T21:40:42.328Z,21.70
2022-08-14T21:43:22.842Z,21.70
2022-08-14T21:45:56.137Z,21.70
2022-08-14T21:48:32.075Z,21.60
2022-08-14T21:51:55.077Z,21.60
2022-08-14T21:53:59.337Z,21.60
2022-08-14T21:56:38.536Z,21.50
2022-08-14T21:59:34.115Z,21.50
2022-08-14T22:02:05.568Z,21.50
2022-08-14T22:04:40.426Z,21.50
2022-08-14T22:07:17.278Z,21.50
2022-08-14T22:09:55.025Z,21.50
2022-08-14T22:12:58.484Z,21.40
2022-08-14T22:15:14.859Z,21.40
2022-08-14T22:17:44.098Z,21.40
2022-08-14T22:20:16.202Z,21.40
2022-08-14T22:22:44.956Z,21.30
2022-08-14T22:25:17.228Z,21.30
2022-08-14T22:27:56.282Z,21.30
2022-08-14T22:30:25.513Z,21.20
2022-08-14T22:32:57.768Z,21.20
2022-08-14T22:35:27.065Z,21.20
2022-08-14T22:38:36.026Z,21.20
2022-08-14T22:41:12.548Z,21.20
2022-08-14T22:43:35.080Z,21.20
2022-08-14T22:46:06.094Z,21.20
2022-08-14T22:48:43.249Z,21.20
2022-08-14T22:51:14.970Z,21.10
2022-08-14T22:53:48.302Z,21.10
2022-08-14T22:56:20.365Z,21.10
2022-08-14T22:58:53.675Z,21.10
2022-08-14T23:01:55.776Z,21.00
2022-08-14T23:04:34.425Z,21.00
2022-08-14T23:07:07.302Z,20.90
2022-08-14T23:09:56.008Z,20.80
2022-08-14T23:12:34.997Z,20.80
2022-08-14T23:15:02.689Z,20.70
2022-08-14T23:17:39.625Z,20.70
2022-08-14T23:20:18.783Z,20.60
2022-08-14T23:22:51.184Z,20.50
2022-08-14T23:25:44.542Z,20.50
2022-08-14T23:28:35.017Z,20.50
2022-08-14T23:30:58.552Z,20.50
2022-08-14T23:33:28.762Z,20.50
2022-08-14T23:35:58.883Z,20.50
2022-08-14T23:38:30.674Z,20.50
2022-08-14T23:41:04.117Z,20.40
2022-08-14T23:43:32.646Z,20.40
2022-08-14T23:46:00.858Z,20.40
2022-08-14T23:48:29.269Z,20.30
2022-08-14T23:51:00.177Z,20.30
2022-08-14T23:53:47.382Z,20.30
2022-08-14T23:56:31.898Z,20.20
2022-08-14T23:59:01.453Z,20.10
